createdAt,value
2022-11-03T00:01:46.692Z,24.50
2022-11-03T00:04:15.220Z,24.47
2022-11-03T00:06:42.374Z,24.43
2022-11-03T00:09:10.430Z,24.43
2022-11-03T00:11:37.857Z,24.38
2022-11-03T00:14:04.700Z,24.37
2022-11-03T00:16:31.165Z,24.37
2022-11-03T00:18:57.643Z,24.38
2022-11-03T00:21:24.092Z,24.38
2022-11-03T00:23:51.085Z,24.38
2022-11-03T00:26:20.742Z,24.37
2022-11-03T00:28:48.905Z,24.36
2022-11-03T00:31:17.139Z,24.33
2022-11-03T00:33:43.904Z,24.28
2022-11-03T00:36:12.268Z,24.29
2022-11-03T00:38:38.750Z,24.27
2022-11-03T00:41:05.805Z,24.22
2022-11-03T00:43:33.397Z,24.19
2022-11-03T00:45:59.999Z,24.23
2022-11-03T00:48:29.366Z,24.16
2022-11-03T00:51:02.485Z,24.14
2022-11-03T00:53:29.181Z,24.12
2022-11-03T00:55:55.643Z,24.13
2022-11-03T00:58:22.185Z,24.09
2022-11-03T01:00:48.704Z,24.08
2022-11-03T01:03:15.182Z,24.08
2022-11-03T01:06:00.895Z,24.07
2022-11-03T01:08:33.220Z,23.98
2022-11-03T01:11:25.518Z,23.99
2022-11-03T01:13:52.032Z,23.96
2022-11-03T01:16:18.497Z,23.95
2022-11-03T01:18:44.981Z,23.93
2022-11-03T01:21:11.460Z,23.91
2022-11-03T01:23:37.989Z,23.90
2022-11-03T01:26:05.948Z,23.88
2022-11-03T01:28:36.148Z,23.85
2022-11-03T01:31:06.500Z,23.86
2022-11-03T01:33:33.355Z,23.82
2022-11-03T01:35:59.845Z,23.81
2022-11-03T01:38:26.341Z,23.79
2022-11-03T01:40:52.863Z,23.79
2022-11-03T01:43:22.922Z,23.77
2022-11-03T01:46:18.711Z,23.75
2022-11-03T01:49:09.825Z,23.73
2022-11-03T01:51:36.530Z,23.74
2022-11-03T01:54:05.757Z,23.71
2022-11-03T01:56:32.803Z,23.67
2022-11-03T01:58:59.270Z,23.68
2022-11-03T02:01:25.840Z,23.66
2022-11-03T02:03:59.597Z,23.66
2022-11-03T02:06:26.525Z,23.64
2022-11-03T02:08:56.886Z,23.61
2022-11-03T02:11:41.909Z,23.59
2022-11-03T02:14:12.867Z,23.56
2022-11-03T02:16:39.329Z,23.55
2022-11-03T02:19:05.796Z,23.54
2022-11-03T02:22:10.625Z,23.51
2022-11-03T02:24:49.900Z,23.47
2022-11-03T02:27:20.259Z,23.47
2022-11-03T02:29:46.915Z,23.46
2022-11-03T02:32:20.030Z,23.45
2022-11-03T02:34:54.739Z,23.42
2022-11-03T02:37:23.017Z,23.39
2022-11-03T02:40:05.331Z,23.36
2022-11-03T02:42:31.810Z,23.34
2022-11-03T02:44:59.950Z,23.33
2022-11-03T02:47:26.425Z,23.33
2022-11-03T02:49:53.711Z,23.34
2022-11-03T02:52:43.799Z,23.29
2022-11-03T02:55:48.526Z,23.29
2022-11-03T02:58:38.851Z,23.25
2022-11-03T03:01:49.350Z,23.26
2022-11-03T03:04:23.753Z,23.22
2022-11-03T03:07:23.683Z,23.29
2022-11-03T03:09:54.419Z,23.35
2022-11-03T03:12:20.879Z,23.32
2022-11-03T03:14:47.412Z,23.37
2022-11-03T03:17:35.645Z,23.37
2022-11-03T03:20:05.516Z,23.35
2022-11-03T03:23:06.244Z,23.31
2022-11-03T03:25:43.654Z,23.32
2022-11-03T03:28:11.988Z,23.30
2022-11-03T03:30:38.466Z,23.25
2022-11-03T03:33:05.748Z,23.24
2022-11-03T03:35:32.862Z,23.19
2022-11-03T03:38:02.241Z,23.21
2022-11-03T03:40:36.446Z,23.23
2022-11-03T03:43:03.602Z,23.24
2022-11-03T03:45:30.399Z,23.29
2022-11-03T03:47:57.872Z,23.28
2022-11-03T03:50:25.399Z,23.29
2022-11-03T03:52:55.610Z,23.26
2022-11-03T03:55:22.095Z,23.23
2022-11-03T03:57:48.632Z,23.21
2022-11-03T04:00:16.032Z,23.20
2022-11-03T04:02:42.639Z,23.19
2022-11-03T04:05:09.116Z,23.18
2022-11-03T04:07:47.327Z,23.17
2022-11-03T04:10:18.046Z,23.13
2022-11-03T04:13:03.197Z,23.12
2022-11-03T04:16:02.662Z,23.09
2022-11-03T04:18:47.553Z,23.06
2022-11-03T04:21:32.486Z,23.04
2022-11-03T04:24:00.354Z,23.00
2022-11-03T04:26:26.975Z,22.97
2022-11-03T04:28:53.576Z,22.98
2022-11-03T04:31:20.232Z,22.95
2022-11-03T04:33:47.871Z,22.95
2022-11-03T04:36:19.423Z,22.92
2022-11-03T04:38:46.007Z,22.90
2022-11-03T04:41:17.467Z,22.90
2022-11-03T04:43:44.613Z,22.87
2022-11-03T04:46:16.559Z,22.86
2022-11-03T04:48:43.465Z,22.86
2022-11-03T04:51:20.702Z,22.83
2022-11-03T04:53:53.085Z,22.79
2022-11-03T04:56:22.185Z,22.77
2022-11-03T04:58:48.692Z,22.75
2022-11-03T05:01:23.427Z,22.70
2022-11-03T05:03:52.162Z,22.71
2022-11-03T05:06:21.266Z,22.69
2022-11-03T05:08:51.140Z,22.65
2022-11-03T05:11:21.876Z,22.67
2022-11-03T05:13:48.490Z,22.64
2022-11-03T05:16:14.959Z,22.61
2022-11-03T05:18:43.525Z,22.63
2022-11-03T05:21:11.390Z,22.63
2022-11-03T05:23:42.744Z,22.60
2022-11-03T05:26:20.601Z,22.59
2022-11-03T05:28:59.907Z,22.62
2022-11-03T05:31:27.976Z,22.60
2022-11-03T05:33:57.657Z,22.62
2022-11-03T05:36:25.350Z,22.60
2022-11-03T05:38:51.985Z,22.59
2022-11-03T05:41:21.941Z,22.58
2022-11-03T05:43:58.184Z,22.57
2022-11-03T05:46:27.263Z,22.57
2022-11-03T05:48:53.712Z,22.56
2022-11-03T05:51:25.060Z,22.49
2022-11-03T05:53:56.034Z,22.35
2022-11-03T05:56:23.846Z,22.47
2022-11-03T05:58:51.428Z,22.54
2022-11-03T06:01:34.046Z,22.54
2022-11-03T06:04:01.626Z,22.51
2022-11-03T06:06:35.320Z,22.50
2022-11-03T06:09:19.697Z,22.47
2022-11-03T06:11:46.344Z,22.48
2022-11-03T06:14:36.197Z,22.47
2022-11-03T06:17:06.399Z,22.44
2022-11-03T06:19:44.930Z,22.44
2022-11-03T06:22:18.985Z,22.47
2022-11-03T06:24:45.839Z,22.44
2022-11-03T06:27:16.694Z,22.46
2022-11-03T06:29:43.689Z,22.44
2022-11-03T06:32:10.244Z,22.40
2022-11-03T06:34:46.283Z,22.43
2022-11-03T06:37:24.965Z,22.42
2022-11-03T06:39:51.819Z,22.40
2022-11-03T06:42:20.559Z,22.38
2022-11-03T06:44:48.673Z,22.40
2022-11-03T06:47:23.244Z,22.40
2022-11-03T06:49:59.629Z,22.40
2022-11-03T06:52:33.998Z,22.40
2022-11-03T06:55:16.679Z,22.42
2022-11-03T06:57:45.859Z,22.45
2022-11-03T07:00:41.154Z,22.42
2022-11-03T07:03:24.957Z,22.43
2022-11-03T07:05:51.416Z,22.44
2022-11-03T07:08:29.156Z,22.39
2022-11-03T07:11:01.233Z,22.35
2022-11-03T07:13:27.741Z,22.33
2022-11-03T07:15:54.201Z,22.32
2022-11-03T07:18:20.756Z,22.30
2022-11-03T07:20:49.691Z,22.29
2022-11-03T07:23:19.582Z,22.26
2022-11-03T07:25:49.452Z,22.28
2022-11-03T07:28:15.960Z,22.29
2022-11-03T07:30:42.495Z,22.31
2022-11-03T07:33:15.195Z,22.34
2022-11-03T07:36:08.940Z,22.39
2022-11-03T07:38:29.514Z,22.39
2022-11-03T07:40:57.298Z,22.40
2022-11-03T07:43:31.767Z,22.40
2022-11-03T07:45:59.765Z,22.42
2022-11-03T07:48:42.107Z,22.41
2022-11-03T07:51:22.209Z,22.40
2022-11-03T07:53:50.540Z,22.40
2022-11-03T07:56:27.169Z,22.37
2022-11-03T07:59:01.531Z,22.32
2022-11-03T08:01:30.108Z,22.35
2022-11-03T08:03:59.003Z,22.37
2022-11-03T08:06:25.483Z,22.37
2022-11-03T08:08:52.151Z,22.38
2022-11-03T08:11:19.544Z,22.40
2022-11-03T08:13:48.811Z,22.31
2022-11-03T08:16:15.274Z,22.23
2022-11-03T08:18:41.731Z,22.17
2022-11-03T08:21:08.260Z,22.08
2022-11-03T08:23:34.779Z,22.06
2022-11-03T08:26:01.253Z,21.93
2022-11-03T08:28:28.277Z,21.95
2022-11-03T08:30:54.818Z,22.01
2022-11-03T08:33:21.379Z,22.02
2022-11-03T08:35:47.918Z,21.99
2022-11-03T08:38:14.474Z,22.00
2022-11-03T08:40:40.970Z,22.02
2022-11-03T08:43:07.456Z,21.97
2022-11-03T08:45:33.935Z,21.95
2022-11-03T08:48:00.411Z,21.95
2022-11-03T08:50:26.916Z,21.98
2022-11-03T08:52:53.418Z,22.00
2022-11-03T08:55:19.943Z,21.99
2022-11-03T08:57:47.306Z,21.99
2022-11-03T09:00:14.298Z,21.93
2022-11-03T09:02:40.773Z,20.67
2022-11-03T09:05:07.821Z,19.28
2022-11-03T09:10:23.195Z,19.26
2022-11-03T09:12:51.450Z,19.53
2022-11-03T09:15:17.934Z,19.18
2022-11-03T09:17:45.683Z,19.57
2022-11-03T09:20:12.453Z,21.19
2022-11-03T09:22:39.329Z,21.18
2022-11-03T09:25:06.288Z,21.24
2022-11-03T09:27:32.738Z,21.32
2022-11-03T09:30:12.692Z,21.39
2022-11-03T09:32:40.425Z,21.49
2022-11-03T09:35:08.292Z,21.47
2022-11-03T09:37:34.849Z,21.57
2022-11-03T09:40:02.073Z,21.51
2022-11-03T09:42:28.534Z,21.39
2022-11-03T09:44:55.062Z,21.43
2022-11-03T09:47:27.929Z,21.43
2022-11-03T09:49:54.388Z,21.40
2022-11-03T09:52:22.320Z,21.39
2022-11-03T09:54:48.896Z,21.35
2022-11-03T09:57:15.609Z,21.38
2022-11-03T09:59:46.717Z,21.39
2022-11-03T10:02:25.328Z,21.35
2022-11-03T10:04:52.702Z,21.33
2022-11-03T10:07:19.279Z,21.35
2022-11-03T10:09:47.724Z,21.42
2022-11-03T10:12:14.232Z,21.49
2022-11-03T10:14:41.587Z,21.42
2022-11-03T10:17:09.487Z,21.41
2022-11-03T10:19:38.704Z,21.49
2022-11-03T10:22:05.159Z,21.44
2022-11-03T10:24:31.614Z,21.40
2022-11-03T10:26:58.314Z,21.40
2022-11-03T10:29:26.007Z,21.41
2022-11-03T10:31:57.037Z,21.45
2022-11-03T10:34:24.417Z,21.50
2022-11-03T10:36:51.128Z,21.55
2022-11-03T10:39:25.954Z,21.61
2022-11-03T10:41:57.672Z,21.63
2022-11-03T10:44:26.277Z,21.62
2022-11-03T10:47:00.458Z,21.65
2022-11-03T10:49:31.046Z,21.62
2022-11-03T10:52:15.877Z,21.68
2022-11-03T10:54:42.613Z,21.67
2022-11-03T10:57:09.077Z,21.62
2022-11-03T10:59:37.385Z,21.60
2022-11-03T11:02:04.281Z,21.61
2022-11-03T11:04:32.007Z,21.61
2022-11-03T11:06:58.852Z,21.58
2022-11-03T11:09:26.208Z,21.56
2022-11-03T11:12:25.233Z,21.53
2022-11-03T11:15:02.659Z,21.57
2022-11-03T11:17:47.735Z,21.58
2022-11-03T11:20:23.738Z,21.59
2022-11-03T11:22:50.484Z,21.62
2022-11-03T11:25:20.166Z,21.63
2022-11-03T11:27:47.510Z,21.63
2022-11-03T11:30:19.980Z,21.62
2022-11-03T11:32:46.353Z,21.62
2022-11-03T11:35:15.770Z,21.65
2022-11-03T11:37:42.385Z,21.65
2022-11-03T11:40:24.668Z,21.67
2022-11-03T11:43:19.755Z,21.72
2022-11-03T11:46:23.578Z,21.71
2022-11-03T11:49:10.189Z,21.72
2022-11-03T11:51:37.742Z,21.75
2022-11-03T11:54:17.579Z,21.74
2022-11-03T11:56:45.512Z,21.74
2022-11-03T11:59:24.810Z,21.73
2022-11-03T12:01:54.032Z,21.73
2022-11-03T12:04:29.024Z,21.74
2022-11-03T12:06:56.436Z,21.81
2022-11-03T12:09:27.683Z,21.81
2022-11-03T12:11:56.396Z,21.80
2022-11-03T12:14:29.305Z,21.85
2022-11-03T12:16:56.420Z,21.84
2022-11-03T12:19:42.566Z,21.86
2022-11-03T12:22:10.407Z,21.83
2022-11-03T12:24:39.115Z,21.81
2022-11-03T12:27:20.441Z,21.81
2022-11-03T12:29:46.921Z,21.84
2022-11-03T12:32:25.984Z,21.82
2022-11-03T12:34:59.905Z,21.85
2022-11-03T12:37:26.385Z,21.79
2022-11-03T12:39:52.842Z,21.78
2022-11-03T12:42:20.077Z,21.76
2022-11-03T12:44:46.721Z,21.75
2022-11-03T12:47:13.319Z,21.74
2022-11-03T12:49:39.804Z,21.74
2022-11-03T12:52:08.442Z,21.74
2022-11-03T12:54:35.267Z,21.73
2022-11-03T12:57:01.794Z,21.71
2022-11-03T12:59:28.396Z,21.69
2022-11-03T13:01:55.354Z,21.69
2022-11-03T13:04:21.899Z,21.66
2022-11-03T13:06:48.481Z,21.71
2022-11-03T13:09:14.977Z,21.70
2022-11-03T13:12:00.083Z,21.70
2022-11-03T13:14:26.714Z,21.71
2022-11-03T13:16:53.253Z,21.69
2022-11-03T13:19:19.831Z,21.68
2022-11-03T13:21:46.313Z,21.68
2022-11-03T13:24:12.769Z,21.68
2022-11-03T13:26:39.258Z,21.68
2022-11-03T13:29:05.716Z,21.67
2022-11-03T13:31:32.441Z,21.68
2022-11-03T13:33:58.906Z,21.72
2022-11-03T13:36:25.515Z,21.71
2022-11-03T13:38:52.442Z,21.68
2022-11-03T13:41:18.926Z,21.67
2022-11-03T13:43:45.413Z,21.68
2022-11-03T13:46:12.934Z,21.66
2022-11-03T13:51:26.229Z,21.75
2022-11-03T13:59:26.234Z,21.77
2022-11-03T14:07:11.402Z,21.68
2022-11-03T14:09:37.902Z,21.68
2022-11-03T14:12:23.354Z,21.63
2022-11-03T14:14:50.182Z,21.65
2022-11-03T14:17:16.781Z,21.60
2022-11-03T14:19:48.680Z,21.65
2022-11-03T14:22:19.527Z,21.63
2022-11-03T14:24:46.006Z,21.63
2022-11-03T14:27:15.637Z,21.63
2022-11-03T14:29:43.710Z,21.62
2022-11-03T14:32:13.056Z,21.59
2022-11-03T14:34:41.116Z,21.60
2022-11-03T14:37:11.058Z,21.61
2022-11-03T14:39:37.662Z,21.58
2022-11-03T14:42:05.326Z,21.57
2022-11-03T14:44:42.284Z,21.59
2022-11-03T14:47:12.030Z,21.58
2022-11-03T14:49:40.597Z,21.56
2022-11-03T14:52:07.516Z,21.57
2022-11-03T14:54:34.465Z,21.56
2022-11-03T14:57:00.968Z,21.57
2022-11-03T14:59:27.552Z,21.55
2022-11-03T15:01:54.235Z,21.55
2022-11-03T15:04:21.426Z,21.55
2022-11-03T15:06:48.272Z,21.56
2022-11-03T15:09:15.070Z,21.56
2022-11-03T15:11:42.525Z,21.54
2022-11-03T15:14:09.013Z,21.55
2022-11-03T15:16:36.223Z,21.55
2022-11-03T15:19:03.705Z,21.54
2022-11-03T15:21:30.613Z,21.55
2022-11-03T15:26:43.561Z,21.54
2022-11-03T15:29:10.024Z,21.54
2022-11-03T15:31:36.499Z,21.54
2022-11-03T15:34:06.044Z,21.52
2022-11-03T15:36:35.302Z,21.52
2022-11-03T15:39:01.922Z,21.52
2022-11-03T15:41:28.397Z,21.50
2022-11-03T15:43:54.852Z,21.49
2022-11-03T15:46:21.339Z,21.49
2022-11-03T15:48:49.153Z,21.49
2022-11-03T15:51:15.725Z,21.47
2022-11-03T15:53:43.636Z,21.48
2022-11-03T15:56:10.141Z,21.46
2022-11-03T15:58:38.126Z,21.46
2022-11-03T16:01:05.149Z,21.44
2022-11-03T16:03:34.780Z,21.46
2022-11-03T16:06:01.258Z,21.44
2022-11-03T16:08:28.889Z,21.43
2022-11-03T16:10:58.542Z,21.41
2022-11-03T16:13:25.423Z,21.41
2022-11-03T16:15:54.416Z,21.39
2022-11-03T16:18:28.270Z,21.40
2022-11-03T16:20:56.087Z,21.40
2022-11-03T16:23:22.546Z,21.40
2022-11-03T16:25:49.001Z,21.41
2022-11-03T16:28:16.137Z,21.40
2022-11-03T16:30:42.974Z,21.41
2022-11-03T16:33:10.113Z,21.41
2022-11-03T16:35:37.639Z,21.39
2022-11-03T16:38:04.148Z,21.41
2022-11-03T16:40:30.700Z,21.37
2022-11-03T16:42:57.170Z,21.40
2022-11-03T16:45:27.566Z,21.38
2022-11-03T16:47:54.865Z,21.36
2022-11-03T16:50:24.181Z,21.46
2022-11-03T16:52:51.854Z,21.65
2022-11-03T16:55:19.086Z,21.78
2022-11-03T16:57:47.049Z,21.85
2022-11-03T17:00:17.669Z,21.88
2022-11-03T17:02:44.367Z,21.90
2022-11-03T17:05:11.060Z,21.94
2022-11-03T17:07:38.898Z,22.03
2022-11-03T17:10:06.812Z,22.07
2022-11-03T17:12:33.987Z,22.10
2022-11-03T17:15:00.465Z,22.11
2022-11-03T17:17:28.622Z,22.20
2022-11-03T17:19:56.468Z,22.21
2022-11-03T17:22:24.308Z,22.24
2022-11-03T17:24:51.037Z,22.24
2022-11-03T17:27:50.879Z,22.27
2022-11-03T17:30:25.005Z,22.32
2022-11-03T17:32:53.178Z,22.35
2022-11-03T17:35:22.284Z,22.36
2022-11-03T17:37:50.088Z,22.36
2022-11-03T17:40:22.833Z,22.36
2022-11-03T17:42:52.903Z,22.34
2022-11-03T17:45:21.016Z,22.33
2022-11-03T17:47:49.574Z,22.34
2022-11-03T17:50:19.887Z,22.17
2022-11-03T17:52:46.925Z,22.14
2022-11-03T17:55:28.299Z,22.14
2022-11-03T17:57:55.207Z,22.12
2022-11-03T18:00:29.653Z,22.12
2022-11-03T18:02:57.945Z,22.25
2022-11-03T18:05:30.411Z,22.20
2022-11-03T18:08:01.151Z,22.17
2022-11-03T18:10:31.022Z,22.26
2022-11-03T18:13:17.425Z,22.21
2022-11-03T18:15:45.319Z,22.21
2022-11-03T18:18:14.469Z,22.23
2022-11-03T18:20:50.335Z,22.28
2022-11-03T18:23:25.368Z,22.37
2022-11-03T18:25:54.601Z,22.51
2022-11-03T18:28:21.382Z,22.60
2022-11-03T18:30:48.807Z,22.66
2022-11-03T18:33:33.617Z,22.69
2022-11-03T18:36:02.033Z,22.77
2022-11-03T18:38:28.522Z,22.79
2022-11-03T18:40:56.075Z,22.81
2022-11-03T18:43:23.856Z,22.80
2022-11-03T18:45:50.691Z,22.80
2022-11-03T18:48:21.511Z,22.81
2022-11-03T18:50:55.285Z,22.83
2022-11-03T18:53:24.489Z,22.82
2022-11-03T18:55:51.869Z,22.84
2022-11-03T18:58:20.375Z,22.82
2022-11-03T19:00:46.965Z,22.81
2022-11-03T19:03:15.791Z,22.80
2022-11-03T19:05:43.495Z,22.79
2022-11-03T19:08:17.972Z,22.77
2022-11-03T19:10:46.229Z,22.75
2022-11-03T19:13:36.931Z,22.70
2022-11-03T19:16:08.780Z,22.65
2022-11-03T19:18:37.170Z,22.63
2022-11-03T19:21:13.431Z,22.60
2022-11-03T19:23:40.207Z,22.49
2022-11-03T19:26:21.470Z,22.44
2022-11-03T19:28:50.474Z,22.40
2022-11-03T19:31:39.967Z,22.35
2022-11-03T19:34:08.634Z,22.33
2022-11-03T19:36:36.158Z,22.41
2022-11-03T19:39:02.942Z,22.43
2022-11-03T19:41:49.326Z,22.46
2022-11-03T19:44:16.143Z,22.44
2022-11-03T19:46:42.630Z,22.47
2022-11-03T19:49:13.298Z,22.45
2022-11-03T19:51:40.392Z,22.46
2022-11-03T19:54:10.475Z,22.50
2022-11-03T19:56:39.043Z,22.50
2022-11-03T19:59:09.385Z,22.51
2022-11-03T20:01:38.928Z,22.50
2022-11-03T20:04:08.338Z,22.53
2022-11-03T20:06:41.000Z,22.54
2022-11-03T20:09:09.385Z,22.54
2022-11-03T20:11:38.106Z,22.56
2022-11-03T20:14:04.593Z,22.58
2022-11-03T20:16:31.228Z,22.58
2022-11-03T20:18:58.098Z,22.60
2022-11-03T20:21:34.277Z,22.66
2022-11-03T20:24:04.721Z,22.65
2022-11-03T20:26:31.751Z,22.59
2022-11-03T20:28:59.571Z,22.59
2022-11-03T20:31:26.053Z,22.56
2022-11-03T20:33:53.695Z,22.59
2022-11-03T20:36:20.541Z,22.57
2022-11-03T20:39:01.472Z,22.50
2022-11-03T20:41:28.706Z,22.46
2022-11-03T20:43:56.757Z,22.42
2022-11-03T20:46:28.141Z,22.45
2022-11-03T20:48:57.866Z,22.41
2022-11-03T20:51:26.271Z,22.39
2022-11-03T20:53:52.999Z,22.39
2022-11-03T20:56:22.211Z,22.39
2022-11-03T20:58:48.755Z,22.40
2022-11-03T21:01:18.237Z,22.37
2022-11-03T21:03:58.810Z,22.39
2022-11-03T21:06:26.713Z,22.38
2022-11-03T21:08:55.153Z,22.40
2022-11-03T21:11:24.924Z,22.39
2022-11-03T21:13:54.130Z,22.39
2022-11-03T21:16:39.180Z,22.39
2022-11-03T21:19:43.322Z,22.43
2022-11-03T21:22:46.210Z,22.42
2022-11-03T21:25:04.788Z,22.34
2022-11-03T21:27:31.531Z,22.36
2022-11-03T21:30:00.587Z,22.38
2022-11-03T21:32:28.562Z,22.38
2022-11-03T21:34:56.299Z,22.39
2022-11-03T21:37:22.776Z,22.39
2022-11-03T21:39:50.055Z,22.36
2022-11-03T21:42:35.075Z,22.33
2022-11-03T21:45:02.963Z,22.32
2022-11-03T21:47:34.212Z,22.29
2022-11-03T21:52:32.325Z,22.26
2022-11-03T21:55:02.488Z,22.44
2022-11-03T21:57:29.627Z,22.65
2022-11-03T21:59:59.395Z,22.97
2022-11-03T22:02:30.052Z,23.15
2022-11-03T22:04:56.995Z,23.33
2022-11-03T22:07:23.556Z,23.46
2022-11-03T22:09:50.022Z,23.54
2022-11-03T22:12:16.861Z,23.75
2022-11-03T22:15:01.771Z,23.81
2022-11-03T22:17:28.587Z,23.93
2022-11-03T22:20:14.375Z,23.99
2022-11-03T22:23:01.563Z,24.07
2022-11-03T22:25:48.553Z,24.11
2022-11-03T22:28:16.432Z,24.20
2022-11-03T22:31:01.624Z,24.28
2022-11-03T22:33:28.296Z,24.33
2022-11-03T22:36:18.739Z,24.40
2022-11-03T22:39:06.353Z,24.43
2022-11-03T22:41:51.415Z,24.38
2022-11-03T22:44:36.578Z,24.38
2022-11-03T22:47:06.930Z,24.38
2022-11-03T22:49:34.963Z,24.41
2022-11-03T22:52:02.301Z,24.41
2022-11-03T22:54:33.433Z,24.42
2022-11-03T22:56:59.907Z,24.43
2022-11-03T22:59:27.765Z,24.44
2022-11-03T23:01:58.346Z,24.46
2022-11-03T23:04:24.927Z,24.46
2022-11-03T23:06:51.386Z,24.47
2022-11-03T23:09:18.397Z,24.48
2022-11-03T23:11:45.199Z,24.52
2022-11-03T23:14:12.141Z,24.56
2022-11-03T23:16:40.596Z,24.60
2022-11-03T23:19:31.072Z,24.59
2022-11-03T23:22:01.674Z,24.60
2022-11-03T23:24:46.945Z,24.60
2022-11-03T23:27:13.913Z,24.60
2022-11-03T23:29:40.887Z,24.59
2022-11-03T23:32:07.752Z,24.64
2022-11-03T23:34:37.672Z,24.65
2022-11-03T23:37:05.409Z,24.68
2022-11-03T23:39:33.040Z,24.65
2022-11-03T23:41:59.524Z,24.65
2022-11-03T23:44:46.270Z,24.67
2022-11-03T23:47:41.986Z,24.65
2022-11-03T23:50:11.804Z,24.55
2022-11-03T23:52:38.268Z,24.47
2022-11-03T23:55:05.125Z,24.60
2022-11-03T23:57:50.881Z,24.60
